sensor_id;sensor_type;location;lat;lon;timestamp;pressure;altitude;pressure_sealevel;temperature;humidity
49827;BME280;35715;51.570;6.036;2023-02-20T00:00:06;102497.09;;;6.58;94.66
49827;BME280;35715;51.570;6.036;2023-02-20T00:02:32;102490.34;;;6.59;94.57
49827;BME280;35715;51.570;6.036;2023-02-20T00:04:57;102491.81;;;6.56;94.54
49827;BME280;35715;51.570;6.036;2023-02-20T00:07:25;102506.13;;;6.54;94.89
49827;BME280;35715;51.570;6.036;2023-02-20T00:09:51;102502.81;;;6.55;95.05
49827;BME280;35715;51.570;6.036;2023-02-20T00:12:16;102494.94;;;6.54;95.09
49827;BME280;35715;51.570;6.036;2023-02-20T00:14:41;102473.13;;;6.57;94.91
49827;BME280;35715;51.570;6.036;2023-02-20T00:17:07;102479.88;;;6.57;94.89
49827;BME280;35715;51.570;6.036;2023-02-20T00:19:32;102465.78;;;6.61;95.15
49827;BME280;35715;51.570;6.036;2023-02-20T00:21:58;102470.56;;;6.57;95.30
49827;BME280;35715;51.570;6.036;2023-02-20T00:24:23;102468.16;;;6.59;95.10
49827;BME280;35715;51.570;6.036;2023-02-20T00:26:50;102459.75;;;6.60;95.08
49827;BME280;35715;51.570;6.036;2023-02-20T00:29:19;102457.19;;;6.60;95.31
49827;BME280;35715;51.570;6.036;2023-02-20T00:31:52;102456.06;;;6.58;95.41
49827;BME280;35715;51.570;6.036;2023-02-20T00:34:17;102458.25;;;6.62;95.59
49827;BME280;35715;51.570;6.036;2023-02-20T00:36:44;102452.53;;;6.65;95.24
49827;BME280;35715;51.570;6.036;2023-02-20T00:39:09;102437.16;;;6.65;95.20
49827;BME280;35715;51.570;6.036;2023-02-20T00:41:34;102439.88;;;6.66;95.51
49827;BME280;35715;51.570;6.036;2023-02-20T00:43:59;102444.09;;;6.66;95.50
49827;BME280;35715;51.570;6.036;2023-02-20T00:46:27;102438.38;;;6.68;95.20
49827;BME280;35715;51.570;6.036;2023-02-20T00:48:52;102437.31;;;6.66;94.98
49827;BME280;35715;51.570;6.036;2023-02-20T00:51:17;102433.66;;;6.64;95.14
49827;BME280;35715;51.570;6.036;2023-02-20T00:53:42;102430.03;;;6.62;95.49
49827;BME280;35715;51.570;6.036;2023-02-20T00:56:12;102419.94;;;6.64;94.99
49827;BME280;35715;51.570;6.036;2023-02-20T00:58:37;102412.81;;;6.61;95.19
49827;BME280;35715;51.570;6.036;2023-02-20T01:01:02;102404.22;;;6.61;95.31
49827;BME280;35715;51.570;6.036;2023-02-20T01:03:28;102393.22;;;6.62;95.28
49827;BME280;35715;51.570;6.036;2023-02-20T01:05:56;102380.41;;;6.62;95.16
49827;BME280;35715;51.570;6.036;2023-02-20T01:08:21;102385.53;;;6.62;95.41
49827;BME280;35715;51.570;6.036;2023-02-20T01:10:47;102398.09;;;6.67;95.46
49827;BME280;35715;51.570;6.036;2023-02-20T01:13:12;102409.44;;;6.69;95.53
49827;BME280;35715;51.570;6.036;2023-02-20T01:15:44;102405.44;;;6.64;95.81
49827;BME280;35715;51.570;6.036;2023-02-20T01:18:09;102409.59;;;6.71;95.65
49827;BME280;35715;51.570;6.036;2023-02-20T01:20:35;102412.00;;;6.69;95.58
49827;BME280;35715;51.570;6.036;2023-02-20T01:23:00;102405.72;;;6.74;95.64
49827;BME280;35715;51.570;6.036;2023-02-20T01:25:25;102398.19;;;6.76;95.65
49827;BME280;35715;51.570;6.036;2023-02-20T01:27:50;102404.03;;;6.75;95.43
49827;BME280;35715;51.570;6.036;2023-02-20T01:30:16;102393.22;;;6.78;95.24
49827;BME280;35715;51.570;6.036;2023-02-20T01:32:41;102390.47;;;6.76;94.52
49827;BME280;35715;51.570;6.036;2023-02-20T01:35:06;102394.06;;;6.69;94.67
49827;BME280;35715;51.570;6.036;2023-02-20T01:37:33;102389.00;;;6.62;94.84
49827;BME280;35715;51.570;6.036;2023-02-20T01:39:58;102377.69;;;6.60;95.01
49827;BME280;35715;51.570;6.036;2023-02-20T01:42:25;102376.81;;;6.52;95.39
49827;BME280;35715;51.570;6.036;2023-02-20T01:44:52;102359.28;;;6.48;95.56
49827;BME280;35715;51.570;6.036;2023-02-20T01:47:19;102361.38;;;6.44;96.04
49827;BME280;35715;51.570;6.036;2023-02-20T01:52:25;102367.47;;;6.37;96.97
49827;BME280;35715;51.570;6.036;2023-02-20T01:54:53;102357.97;;;6.36;96.78
49827;BME280;35715;51.570;6.036;2023-02-20T01:59:49;102334.38;;;6.31;96.87
49827;BME280;35715;51.570;6.036;2023-02-20T02:02:17;102328.34;;;6.31;97.05
49827;BME280;35715;51.570;6.036;2023-02-20T02:04:43;102320.66;;;6.31;97.07
49827;BME280;35715;51.570;6.036;2023-02-20T02:07:11;102306.78;;;6.29;97.05
49827;BME280;35715;51.570;6.036;2023-02-20T02:09:38;102304.94;;;6.28;97.46
49827;BME280;35715;51.570;6.036;2023-02-20T02:12:06;102306.59;;;6.27;96.86
49827;BME280;35715;51.570;6.036;2023-02-20T02:14:32;102303.56;;;6.22;97.56
49827;BME280;35715;51.570;6.036;2023-02-20T02:22:23;102306.91;;;6.14;98.53
49827;BME280;35715;51.570;6.036;2023-02-20T02:27:40;102305.50;;;6.09;98.98
49827;BME280;35715;51.570;6.036;2023-02-20T02:30:34;102302.06;;;6.09;99.18
49827;BME280;35715;51.570;6.036;2023-02-20T02:41:06;102278.56;;;5.97;100.00
49827;BME280;35715;51.570;6.036;2023-02-20T02:43:38;102278.91;;;6.00;100.00
49827;BME280;35715;51.570;6.036;2023-02-20T02:49:02;102281.13;;;5.97;100.00
49827;BME280;35715;51.570;6.036;2023-02-20T02:51:31;102285.28;;;5.96;100.00
49827;BME280;35715;51.570;6.036;2023-02-20T02:56:35;102279.47;;;5.97;100.00
49827;BME280;35715;51.570;6.036;2023-02-20T02:59:02;102268.84;;;5.94;100.00
49827;BME280;35715;51.570;6.036;2023-02-20T03:01:29;102262.22;;;5.96;100.00
49827;BME280;35715;51.570;6.036;2023-02-20T03:03:57;102264.44;;;5.93;100.00
49827;BME280;35715;51.570;6.036;2023-02-20T03:06:30;102260.09;;;5.92;100.00
49827;BME280;35715;51.570;6.036;2023-02-20T03:09:02;102252.41;;;5.92;100.00
49827;BME280;35715;51.570;6.036;2023-02-20T03:11:30;102256.94;;;5.95;100.00
49827;BME280;35715;51.570;6.036;2023-02-20T03:14:01;102253.63;;;5.96;100.00
49827;BME280;35715;51.570;6.036;2023-02-20T03:16:53;102256.09;;;5.87;100.00
49827;BME280;35715;51.570;6.036;2023-02-20T03:19:23;102257.75;;;5.86;100.00
49827;BME280;35715;51.570;6.036;2023-02-20T03:21:50;102256.44;;;5.90;100.00
49827;BME280;35715;51.570;6.036;2023-02-20T03:24:16;102251.91;;;5.88;100.00
49827;BME280;35715;51.570;6.036;2023-02-20T03:26:44;102249.00;;;5.84;100.00
49827;BME280;35715;51.570;6.036;2023-02-20T03:29:13;102251.31;;;5.90;100.00
49827;BME280;35715;51.570;6.036;2023-02-20T03:31:44;102240.72;;;5.87;100.00
49827;BME280;35715;51.570;6.036;2023-02-20T03:34:30;102236.53;;;5.88;100.00
49827;BME280;35715;51.570;6.036;2023-02-20T03:37:16;102240.34;;;5.91;100.00
49827;BME280;35715;51.570;6.036;2023-02-20T03:40:04;102240.34;;;5.91;100.00
49827;BME280;35715;51.570;6.036;2023-02-20T03:42:50;102251.81;;;5.95;100.00
49827;BME280;35715;51.570;6.036;2023-02-20T03:45:36;102246.09;;;6.04;100.00
49827;BME280;35715;51.570;6.036;2023-02-20T03:48:06;102251.13;;;6.12;100.00
49827;BME280;35715;51.570;6.036;2023-02-20T03:50:32;102249.22;;;6.18;100.00
49827;BME280;35715;51.570;6.036;2023-02-20T03:52:58;102253.19;;;6.23;100.00
49827;BME280;35715;51.570;6.036;2023-02-20T03:55:23;102253.50;;;6.26;100.00
49827;BME280;35715;51.570;6.036;2023-02-20T03:57:49;102255.34;;;6.27;100.00
49827;BME280;35715;51.570;6.036;2023-02-20T04:00:20;102256.75;;;6.32;100.00
49827;BME280;35715;51.570;6.036;2023-02-20T04:02:46;102251.94;;;6.35;100.00
49827;BME280;35715;51.570;6.036;2023-02-20T04:05:24;102252.44;;;6.40;100.00
49827;BME280;35715;51.570;6.036;2023-02-20T04:08:09;102248.06;;;6.39;100.00
49827;BME280;35715;51.570;6.036;2023-02-20T04:10:38;102248.81;;;6.38;100.00
49827;BME280;35715;51.570;6.036;2023-02-20T04:13:04;102243.00;;;6.48;100.00
49827;BME280;35715;51.570;6.036;2023-02-20T04:15:33;102240.88;;;6.44;100.00
49827;BME280;35715;51.570;6.036;2023-02-20T04:18:08;102240.88;;;6.44;100.00
49827;BME280;35715;51.570;6.036;2023-02-20T04:20:34;102240.44;;;6.48;100.00
49827;BME280;35715;51.570;6.036;2023-02-20T04:23:12;102237.81;;;6.39;100.00
49827;BME280;35715;51.570;6.036;2023-02-20T04:25:42;102240.59;;;6.49;100.00
49827;BME280;35715;51.570;6.036;2023-02-20T04:28:09;102241.53;;;6.50;100.00
49827;BME280;35715;51.570;6.036;2023-02-20T04:30:35;102245.72;;;6.49;100.00
49827;BME280;35715;51.570;6.036;2023-02-20T04:33:00;102244.25;;;6.51;100.00
49827;BME280;35715;51.570;6.036;2023-02-20T04:35:35;102232.72;;;6.48;100.00
49827;BME280;35715;51.570;6.036;2023-02-20T04:38:00;102240.91;;;6.52;100.00
49827;BME280;35715;51.570;6.036;2023-02-20T04:40:25;102250.28;;;6.52;100.00
49827;BME280;35715;51.570;6.036;2023-02-20T04:42:51;102239.44;;;6.54;100.00
49827;BME280;35715;51.570;6.036;2023-02-20T04:45:16;102248.69;;;6.61;100.00
49827;BME280;35715;51.570;6.036;2023-02-20T04:47:45;102240.81;;;6.60;100.00
49827;BME280;35715;51.570;6.036;2023-02-20T04:50:15;102236.28;;;6.57;100.00
49827;BME280;35715;51.570;6.036;2023-02-20T04:52:43;102252.19;;;6.62;100.00
49827;BME280;35715;51.570;6.036;2023-02-20T04:55:08;102249.84;;;6.56;100.00
49827;BME280;35715;51.570;6.036;2023-02-20T05:00:04;102249.94;;;6.65;100.00
49827;BME280;35715;51.570;6.036;2023-02-20T05:02:29;102253.97;;;6.63;100.00
49827;BME280;35715;51.570;6.036;2023-02-20T05:04:55;102262.59;;;6.63;100.00
49827;BME280;35715;51.570;6.036;2023-02-20T05:07:20;102251.72;;;6.66;100.00
49827;BME280;35715;51.570;6.036;2023-02-20T05:09:45;102254.38;;;6.74;100.00
49827;BME280;35715;51.570;6.036;2023-02-20T05:12:10;102252.38;;;6.72;100.00
49827;BME280;35715;51.570;6.036;2023-02-20T05:14:36;102253.47;;;6.74;100.00
49827;BME280;35715;51.570;6.036;2023-02-20T05:19:29;102238.09;;;6.74;100.00
49827;BME280;35715;51.570;6.036;2023-02-20T05:21:54;102239.56;;;6.72;100.00
49827;BME280;35715;51.570;6.036;2023-02-20T05:24:38;102238.66;;;6.71;100.00
49827;BME280;35715;51.570;6.036;2023-02-20T05:27:04;102243.38;;;6.75;100.00
49827;BME280;35715;51.570;6.036;2023-02-20T05:29:29;102240.31;;;6.71;100.00
49827;BME280;35715;51.570;6.036;2023-02-20T05:31:55;102237.00;;;6.72;100.00
49827;BME280;35715;51.570;6.036;2023-02-20T05:34:20;102235.22;;;6.80;100.00
49827;BME280;35715;51.570;6.036;2023-02-20T05:36:48;102237.78;;;6.80;100.00
49827;BME280;35715;51.570;6.036;2023-02-20T05:39:13;102241.69;;;6.76;100.00
49827;BME280;35715;51.570;6.036;2023-02-20T05:41:39;102227.22;;;6.77;100.00
49827;BME280;35715;51.570;6.036;2023-02-20T05:44:04;102227.06;;;6.75;100.00
49827;BME280;35715;51.570;6.036;2023-02-20T05:46:30;102242.91;;;6.80;100.00
49827;BME280;35715;51.570;6.036;2023-02-20T05:48:55;102241.88;;;6.78;100.00
49827;BME280;35715;51.570;6.036;2023-02-20T05:53:46;102236.47;;;6.83;100.00
49827;BME280;35715;51.570;6.036;2023-02-20T05:56:11;102241.03;;;6.86;100.00
49827;BME280;35715;51.570;6.036;2023-02-20T05:58:36;102242.25;;;6.89;100.00
49827;BME280;35715;51.570;6.036;2023-02-20T06:01:02;102238.94;;;6.90;100.00
49827;BME280;35715;51.570;6.036;2023-02-20T06:03:27;102251.00;;;6.91;100.00
49827;BME280;35715;51.570;6.036;2023-02-20T06:05:54;102242.16;;;6.97;100.00
49827;BME280;35715;51.570;6.036;2023-02-20T06:08:20;102252.56;;;6.98;100.00
49827;BME280;35715;51.570;6.036;2023-02-20T06:10:45;102243.22;;;6.99;100.00
49827;BME280;35715;51.570;6.036;2023-02-20T06:13:10;102231.13;;;6.98;100.00
49827;BME280;35715;51.570;6.036;2023-02-20T06:15:38;102245.03;;;7.00;100.00
49827;BME280;35715;51.570;6.036;2023-02-20T06:18:03;102238.06;;;6.99;100.00
49827;BME280;35715;51.570;6.036;2023-02-20T06:20:28;102243.38;;;7.00;100.00
49827;BME280;35715;51.570;6.036;2023-02-20T06:22:53;102230.38;;;6.99;100.00
49827;BME280;35715;51.570;6.036;2023-02-20T06:25:19;102245.19;;;7.01;100.00
49827;BME280;35715;51.570;6.036;2023-02-20T06:27:44;102239.13;;;7.01;100.00
49827;BME280;35715;51.570;6.036;2023-02-20T06:30:09;102248.34;;;6.99;100.00
49827;BME280;35715;51.570;6.036;2023-02-20T06:32:35;102236.16;;;7.05;100.00
49827;BME280;35715;51.570;6.036;2023-02-20T06:35:00;102243.28;;;7.07;100.00
49827;BME280;35715;51.570;6.036;2023-02-20T06:37:33;102233.47;;;7.12;100.00
49827;BME280;35715;51.570;6.036;2023-02-20T06:39:58;102225.63;;;7.10;100.00
49827;BME280;35715;51.570;6.036;2023-02-20T06:42:24;102221.69;;;7.14;100.00
49827;BME280;35715;51.570;6.036;2023-02-20T06:44:49;102227.75;;;7.15;100.00
49827;BME280;35715;51.570;6.036;2023-02-20T06:47:15;102232.13;;;7.16;100.00
49827;BME280;35715;51.570;6.036;2023-02-20T06:49:40;102232.28;;;7.17;100.00
49827;BME280;35715;51.570;6.036;2023-02-20T06:52:07;102230.50;;;7.16;100.00
49827;BME280;35715;51.570;6.036;2023-02-20T06:54:33;102235.00;;;7.19;100.00
49827;BME280;35715;51.570;6.036;2023-02-20T06:57:00;102235.94;;;7.19;100.00
49827;BME280;35715;51.570;6.036;2023-02-20T06:59:26;102241.97;;;7.20;100.00
49827;BME280;35715;51.570;6.036;2023-02-20T07:01:51;102235.47;;;7.23;100.00
49827;BME280;35715;51.570;6.036;2023-02-20T07:04:25;102232.66;;;7.29;100.00
49827;BME280;35715;51.570;6.036;2023-02-20T07:06:51;102240.03;;;7.26;99.79
49827;BME280;35715;51.570;6.036;2023-02-20T07:09:17;102244.13;;;7.24;99.58
49827;BME280;35715;51.570;6.036;2023-02-20T07:11:46;102235.94;;;7.19;99.67
49827;BME280;35715;51.570;6.036;2023-02-20T07:14:12;102241.22;;;7.21;99.47
49827;BME280;35715;51.570;6.036;2023-02-20T07:19:06;102238.84;;;7.31;99.07
49827;BME280;35715;51.570;6.036;2023-02-20T07:21:31;102237.94;;;7.31;99.08
49827;BME280;35715;51.570;6.036;2023-02-20T07:23:56;102237.50;;;7.35;98.97
49827;BME280;35715;51.570;6.036;2023-02-20T07:26:27;102251.88;;;7.41;98.63
49827;BME280;35715;51.570;6.036;2023-02-20T07:28:53;102252.19;;;7.44;98.58
49827;BME280;35715;51.570;6.036;2023-02-20T07:31:19;102249.94;;;7.47;98.25
49827;BME280;35715;51.570;6.036;2023-02-20T07:33:45;102254.50;;;7.50;98.11
49827;BME280;35715;51.570;6.036;2023-02-20T07:36:10;102244.97;;;7.49;97.75
49827;BME280;35715;51.570;6.036;2023-02-20T07:38:36;102241.81;;;7.52;97.64
49827;BME280;35715;51.570;6.036;2023-02-20T07:41:02;102238.50;;;7.53;97.73
49827;BME280;35715;51.570;6.036;2023-02-20T07:43:27;102237.13;;;7.56;97.47
49827;BME280;35715;51.570;6.036;2023-02-20T07:45:55;102232.44;;;7.52;97.03
49827;BME280;35715;51.570;6.036;2023-02-20T07:48:20;102231.84;;;7.55;97.06
49827;BME280;35715;51.570;6.036;2023-02-20T07:50:45;102242.75;;;7.61;96.93
49827;BME280;35715;51.570;6.036;2023-02-20T07:53:14;102240.34;;;7.62;96.94
49827;BME280;35715;51.570;6.036;2023-02-20T07:55:51;102244.28;;;7.68;96.87
49827;BME280;35715;51.570;6.036;2023-02-20T07:58:16;102237.94;;;7.73;96.54
49827;BME280;35715;51.570;6.036;2023-02-20T08:00:41;102238.53;;;7.70;96.46
49827;BME280;35715;51.570;6.036;2023-02-20T08:03:06;102234.91;;;7.68;96.05
49827;BME280;35715;51.570;6.036;2023-02-20T08:05:32;102221.78;;;7.74;96.39
49827;BME280;35715;51.570;6.036;2023-02-20T08:07:57;102230.28;;;7.81;96.33
49827;BME280;35715;51.570;6.036;2023-02-20T08:10:25;102225.72;;;7.79;95.54
49827;BME280;35715;51.570;6.036;2023-02-20T08:12:51;102233.16;;;7.85;95.21
49827;BME280;35715;51.570;6.036;2023-02-20T08:15:17;102234.19;;;7.78;95.24
49827;BME280;35715;51.570;6.036;2023-02-20T08:17:45;102236.16;;;7.80;95.46
49827;BME280;35715;51.570;6.036;2023-02-20T08:20:10;102237.38;;;7.84;95.14
49827;BME280;35715;51.570;6.036;2023-02-20T08:22:36;102218.91;;;7.79;95.00
49827;BME280;35715;51.570;6.036;2023-02-20T08:25:01;102223.63;;;7.84;95.19
49827;BME280;35715;51.570;6.036;2023-02-20T08:27:30;102219.22;;;7.82;95.27
49827;BME280;35715;51.570;6.036;2023-02-20T08:29:55;102223.94;;;7.87;95.16
49827;BME280;35715;51.570;6.036;2023-02-20T08:32:21;102223.19;;;7.88;94.84
49827;BME280;35715;51.570;6.036;2023-02-20T08:34:46;102222.25;;;7.87;94.77
49827;BME280;35715;51.570;6.036;2023-02-20T08:37:11;102227.88;;;7.92;94.92
49827;BME280;35715;51.570;6.036;2023-02-20T08:39:37;102228.81;;;8.01;94.97
49827;BME280;35715;51.570;6.036;2023-02-20T08:42:02;102232.44;;;8.03;94.32
49827;BME280;35715;51.570;6.036;2023-02-20T08:44:27;102222.59;;;7.99;94.02
49827;BME280;35715;51.570;6.036;2023-02-20T08:46:54;102228.66;;;7.99;94.51
49827;BME280;35715;51.570;6.036;2023-02-20T08:49:20;102235.00;;;8.03;94.47
49827;BME280;35715;51.570;6.036;2023-02-20T08:51:46;102222.28;;;8.05;94.32
49827;BME280;35715;51.570;6.036;2023-02-20T08:54:11;102236.97;;;8.14;94.23
49827;BME280;35715;51.570;6.036;2023-02-20T08:56:37;102227.16;;;8.10;94.14
49827;BME280;35715;51.570;6.036;2023-02-20T08:59:02;102230.19;;;8.15;93.77
49827;BME280;35715;51.570;6.036;2023-02-20T09:01:27;102230.34;;;8.16;93.51
49827;BME280;35715;51.570;6.036;2023-02-20T09:03:52;102232.16;;;8.17;93.41
49827;BME280;35715;51.570;6.036;2023-02-20T09:06:20;102237.59;;;8.21;93.49
49827;BME280;35715;51.570;6.036;2023-02-20T09:08:45;102231.97;;;8.25;93.60
49827;BME280;35715;51.570;6.036;2023-02-20T09:11:10;102231.09;;;8.24;93.41
49827;BME280;35715;51.570;6.036;2023-02-20T09:13:42;102227.78;;;8.25;93.75
49827;BME280;35715;51.570;6.036;2023-02-20T09:16:09;102233.06;;;8.27;93.60
49827;BME280;35715;51.570;6.036;2023-02-20T09:18:34;102227.44;;;8.31;93.44
49827;BME280;35715;51.570;6.036;2023-02-20T09:20:59;102233.81;;;8.34;93.42
49827;BME280;35715;51.570;6.036;2023-02-20T09:23:24;102222.00;;;8.37;93.60
49827;BME280;35715;51.570;6.036;2023-02-20T09:25:51;102223.06;;;8.39;93.02
49827;BME280;35715;51.570;6.036;2023-02-20T09:28:17;102223.53;;;8.43;93.28
49827;BME280;35715;51.570;6.036;2023-02-20T09:30:43;102229.78;;;8.54;93.44
49827;BME280;35715;51.570;6.036;2023-02-20T09:33:08;102221.91;;;8.52;93.02
49827;BME280;35715;51.570;6.036;2023-02-20T09:35:33;102235.66;;;8.53;93.25
49827;BME280;35715;51.570;6.036;2023-02-20T09:37:59;102231.75;;;8.48;93.15
49827;BME280;35715;51.570;6.036;2023-02-20T09:40:27;102231.75;;;8.48;93.33
49827;BME280;35715;51.570;6.036;2023-02-20T09:45:21;102225.53;;;8.55;93.86
49827;BME280;35715;51.570;6.036;2023-02-20T09:50:22;102212.38;;;8.60;93.70
49827;BME280;35715;51.570;6.036;2023-02-20T09:52:56;102216.91;;;8.45;93.19
49827;BME280;35715;51.570;6.036;2023-02-20T09:55:22;102215.84;;;8.52;93.68
49827;BME280;35715;51.570;6.036;2023-02-20T09:57:48;102218.25;;;8.50;93.60
49827;BME280;35715;51.570;6.036;2023-02-20T10:00:32;102226.91;;;8.51;93.90
49827;BME280;35715;51.570;6.036;2023-02-20T10:03:04;102222.31;;;8.66;93.64
49827;BME280;35715;51.570;6.036;2023-02-20T10:05:33;102219.00;;;8.67;93.23
49827;BME280;35715;51.570;6.036;2023-02-20T10:08:00;102219.44;;;8.63;93.21
49827;BME280;35715;51.570;6.036;2023-02-20T10:10:27;102220.81;;;8.68;93.45
49827;BME280;35715;51.570;6.036;2023-02-20T10:12:55;102211.88;;;8.64;93.51
49827;BME280;35715;51.570;6.036;2023-02-20T10:16:08;102204.78;;;8.62;93.45
49827;BME280;35715;51.570;6.036;2023-02-20T10:18:20;102199.47;;;8.69;93.31
49827;BME280;35715;51.570;6.036;2023-02-20T10:23:55;102194.75;;;8.82;93.15
49827;BME280;35715;51.570;6.036;2023-02-20T10:26:29;102200.38;;;8.78;93.01
49827;BME280;35715;51.570;6.036;2023-02-20T10:28:58;102214.88;;;8.78;93.01
49827;BME280;35715;51.570;6.036;2023-02-20T10:31:32;102207.16;;;8.86;93.09
49827;BME280;35715;51.570;6.036;2023-02-20T10:34:04;102213.50;;;8.90;92.79
49827;BME280;35715;51.570;6.036;2023-02-20T10:36:36;102210.31;;;8.93;92.74
49827;BME280;35715;51.570;6.036;2023-02-20T10:39:13;102206.25;;;8.86;92.73
49827;BME280;35715;51.570;6.036;2023-02-20T10:46:45;102205.03;;;8.82;93.09
49827;BME280;35715;51.570;6.036;2023-02-20T10:49:18;102203.84;;;8.87;93.51
49827;BME280;35715;51.570;6.036;2023-02-20T10:51:47;102205.03;;;8.82;93.16
49827;BME280;35715;51.570;6.036;2023-02-20T10:54:20;102207.31;;;8.88;93.34
49827;BME280;35715;51.570;6.036;2023-02-20T10:59:25;102215.47;;;8.93;93.15
49827;BME280;35715;51.570;6.036;2023-02-20T11:01:54;102222.28;;;8.92;93.24
49827;BME280;35715;51.570;6.036;2023-02-20T11:04:24;102205.31;;;8.94;93.23
49827;BME280;35715;51.570;6.036;2023-02-20T11:06:53;102203.47;;;9.02;93.49
49827;BME280;35715;51.570;6.036;2023-02-20T11:09:20;102194.25;;;9.04;93.21
49827;BME280;35715;51.570;6.036;2023-02-20T11:11:47;102189.41;;;9.07;93.01
49827;BME280;35715;51.570;6.036;2023-02-20T11:14:14;102170.66;;;8.99;92.83
49827;BME280;35715;51.570;6.036;2023-02-20T11:17:23;102170.31;;;9.05;92.99
49827;BME280;35715;51.570;6.036;2023-02-20T11:19:31;102183.47;;;9.08;92.75
49827;BME280;35715;51.570;6.036;2023-02-20T11:21:58;102182.56;;;9.08;93.13
49827;BME280;35715;51.570;6.036;2023-02-20T11:24:30;102183.81;;;9.02;93.09
49827;BME280;35715;51.570;6.036;2023-02-20T11:27:01;102188.31;;;9.05;93.36
49827;BME280;35715;51.570;6.036;2023-02-20T11:30:15;102197.41;;;9.10;93.65
49827;BME280;35715;51.570;6.036;2023-02-20T11:34:48;102181.53;;;9.05;93.78
49827;BME280;35715;51.570;6.036;2023-02-20T11:37:13;102197.13;;;9.07;93.82
49827;BME280;35715;51.570;6.036;2023-02-20T11:39:44;102201.84;;;9.02;93.68
49827;BME280;35715;51.570;6.036;2023-02-20T11:44:35;102158.06;;;9.02;94.68
49827;BME280;35715;51.570;6.036;2023-02-20T11:47:07;102165.78;;;9.02;94.64
49827;BME280;35715;51.570;6.036;2023-02-20T11:49:33;102177.44;;;8.99;94.59
49827;BME280;35715;51.570;6.036;2023-02-20T11:52:11;102186.38;;;9.02;94.58
49827;BME280;35715;51.570;6.036;2023-02-20T11:54:39;102180.16;;;9.00;94.68
49827;BME280;35715;51.570;6.036;2023-02-20T12:04:36;102162.72;;;9.06;95.42
49827;BME280;35715;51.570;6.036;2023-02-20T12:07:25;102156.06;;;9.09;95.28
49827;BME280;35715;51.570;6.036;2023-02-20T12:09:49;102144.09;;;9.09;95.29
49827;BME280;35715;51.570;6.036;2023-02-20T12:12:15;102142.09;;;9.15;95.21
49827;BME280;35715;51.570;6.036;2023-02-20T12:14:40;102148.00;;;9.14;95.32
49827;BME280;35715;51.570;6.036;2023-02-20T12:19:41;102153.13;;;9.23;94.79
49827;BME280;35715;51.570;6.036;2023-02-20T12:22:17;102151.16;;;9.20;95.12
49827;BME280;35715;51.570;6.036;2023-02-20T12:30:01;102146.94;;;9.21;95.48
49827;BME280;35715;51.570;6.036;2023-02-20T12:35:19;102133.28;;;9.22;95.64
49827;BME280;35715;51.570;6.036;2023-02-20T12:40:27;102106.91;;;9.24;95.96
49827;BME280;35715;51.570;6.036;2023-02-20T12:43:06;102119.31;;;9.29;95.27
49827;BME280;35715;51.570;6.036;2023-02-20T12:46:11;102101.25;;;9.37;95.70
49827;BME280;35715;51.570;6.036;2023-02-20T13:01:20;102067.94;;;9.30;95.63
49827;BME280;35715;51.570;6.036;2023-02-20T13:06:42;102083.78;;;9.44;95.83
49827;BME280;35715;51.570;6.036;2023-02-20T13:11:39;102106.25;;;9.55;94.94
49827;BME280;35715;51.570;6.036;2023-02-20T13:16:39;102115.09;;;9.48;94.94
49827;BME280;35715;51.570;6.036;2023-02-20T13:19:14;102105.28;;;9.44;95.27
49827;BME280;35715;51.570;6.036;2023-02-20T13:21:41;102093.78;;;9.40;95.46
49827;BME280;35715;51.570;6.036;2023-02-20T13:26:51;102090.09;;;9.47;95.27
49827;BME280;35715;51.570;6.036;2023-02-20T13:31:47;102082.09;;;9.44;95.13
49827;BME280;35715;51.570;6.036;2023-02-20T13:36:42;102070.59;;;9.40;95.33
49827;BME280;35715;51.570;6.036;2023-02-20T13:46:57;102070.75;;;9.42;95.18
49827;BME280;35715;51.570;6.036;2023-02-20T13:54:51;102068.13;;;9.51;94.81
49827;BME280;35715;51.570;6.036;2023-02-20T13:57:17;102076.59;;;9.50;95.00
49827;BME280;35715;51.570;6.036;2023-02-20T13:59:42;102075.19;;;9.53;94.99
49827;BME280;35715;51.570;6.036;2023-02-20T14:02:19;102076.53;;;9.58;95.15
49827;BME280;35715;51.570;6.036;2023-02-20T14:04:58;102071.41;;;9.58;95.05
49827;BME280;35715;51.570;6.036;2023-02-20T14:07:57;102063.25;;;9.54;94.90
49827;BME280;35715;51.570;6.036;2023-02-20T14:10:23;102064.91;;;9.53;94.74
49827;BME280;35715;51.570;6.036;2023-02-20T14:12:56;102054.25;;;9.59;94.87
49827;BME280;35715;51.570;6.036;2023-02-20T14:15:22;102056.69;;;9.57;94.90
49827;BME280;35715;51.570;6.036;2023-02-20T14:17:48;102046.66;;;9.61;94.74
49827;BME280;35715;51.570;6.036;2023-02-20T14:20:21;102035.94;;;9.56;94.59
49827;BME280;35715;51.570;6.036;2023-02-20T14:22:47;102030.50;;;9.53;94.79
49827;BME280;35715;51.570;6.036;2023-02-20T14:27:43;102028.41;;;9.49;95.07
49827;BME280;35715;51.570;6.036;2023-02-20T14:30:14;102029.94;;;9.47;95.23
49827;BME280;35715;51.570;6.036;2023-02-20T14:32:46;102020.97;;;9.52;95.10
49827;BME280;35715;51.570;6.036;2023-02-20T14:40:36;102023.47;;;9.61;94.80
49827;BME280;35715;51.570;6.036;2023-02-20T14:43:02;102017.41;;;9.60;94.84
49827;BME280;35715;51.570;6.036;2023-02-20T14:45:28;102020.00;;;9.60;94.83
49827;BME280;35715;51.570;6.036;2023-02-20T14:47:57;102016.22;;;9.56;94.59
49827;BME280;35715;51.570;6.036;2023-02-20T14:50:24;102019.84;;;9.58;94.75
49827;BME280;35715;51.570;6.036;2023-02-20T14:53:03;102025.00;;;9.58;94.95
49827;BME280;35715;51.570;6.036;2023-02-20T14:55:31;102025.91;;;9.59;94.75
49827;BME280;35715;51.570;6.036;2023-02-20T14:57:56;102018.03;;;9.57;94.60
49827;BME280;35715;51.570;6.036;2023-02-20T15:00:22;102017.16;;;9.57;94.45
49827;BME280;35715;51.570;6.036;2023-02-20T15:02:49;102030.06;;;9.67;94.36
49827;BME280;35715;51.570;6.036;2023-02-20T15:05:17;102021.84;;;9.71;94.40
49827;BME280;35715;51.570;6.036;2023-02-20T15:07:44;102022.13;;;9.74;94.23
49827;BME280;35715;51.570;6.036;2023-02-20T15:13:08;102024.72;;;9.74;93.72